»·PEaware :: JZA103 KGEG-KPDX

JZA103 :: KGEG-KPDX

FLIGHT INFORMATION

Flight Status: Arrived
Operator:
Air Canada Jazz
More flights by this operator :: More flights under this callsign
Pilot: Mike G. (11411)
Aircraft: CANADAIR CL-600 CRJ-900
(CRJ9)
More flights by this aircraft type
Origin: KGEG Spokane Intl
United States
Destination: KPDX Portland Intl
United States
More flights between these airports :: More routes between these airports
Route: +GEG5 ZEGRO JORAD HHOOD4
File this flight plan on PilotEdge
Remarks: RMK / SIMBRIEF
Altitude:
(Current/Filed)
36,000ft
Speed:
(Current/Filed)
457kts
Departed: 23-Apr-19 01:59 PM
Arrived: 23-Apr-19 02:56 PM
Distance/Time
Traveled:
242nm/0:57
Distance/Time
To Go:
Arrived

Flight Plot

Page will automatically refresh every two minutes.

Flight plan parsing failed; only flown route is shown


Map Options




Map Legend


Flown Route
Filed Route
Departure Airport
Arrival Airport
Navaid (VOR, NDB)
Fix

Horizontal Profiles

Position Reports

Time Latitude Longitude Heading Altitude Ground
Speed
23-Apr-19 13:42 47.625351 -117.534310 1 2379ft 0kts
23-Apr-19 13:43 47.625351 -117.534310 1 2379ft 0kts
23-Apr-19 13:44 47.625351 -117.534310 1 2379ft 0kts
23-Apr-19 13:45 47.625351 -117.534310 1 2379ft 0kts
23-Apr-19 13:46 47.625351 -117.534310 1 2379ft 0kts
23-Apr-19 13:47 47.625353 -117.534310 1 2379ft 0kts
23-Apr-19 13:48 47.624897 -117.534323 1 2379ft 2kts
23-Apr-19 13:49 47.625664 -117.533312 52 2379ft 12kts
23-Apr-19 13:50 47.626478 -117.530392 87 2379ft 8kts
23-Apr-19 13:51 47.628847 -117.526480 43 2379ft 16kts
23-Apr-19 13:52 47.632154 -117.521388 43 2379ft 15kts
23-Apr-19 13:53 47.631819 -117.519603 132 2379ft 0kts
23-Apr-19 13:54 47.631818 -117.519601 132 2379ft 0kts
23-Apr-19 13:55 47.631816 -117.519599 132 2379ft 0kts
23-Apr-19 13:56 47.631815 -117.519597 132 2379ft 0kts
23-Apr-19 13:57 47.630464 -117.519393 224 2379ft 16kts
23-Apr-19 13:58 47.610752 -117.548409 221 3012ft 139kts
23-Apr-19 13:59 47.577855 -117.590058 220 5262ft 180kts
23-Apr-19 14:00 47.537281 -117.648304 232 7779ft 224kts
23-Apr-19 14:01 47.497516 -117.730795 235 10492ft 259kts
23-Apr-19 14:02 47.449812 -117.823029 236 12710ft 307kts
23-Apr-19 14:03 47.391384 -117.929738 234 14852ft 357kts
23-Apr-19 14:04 47.328322 -118.044852 235 18128ft 365kts
23-Apr-19 14:05 47.263011 -118.163240 235 20835ft 379kts
23-Apr-19 14:06 47.195297 -118.285841 235 22991ft 397kts
23-Apr-19 14:08 47.125644 -118.411190 235 23215ft 381kts
23-Apr-19 14:09 47.056058 -118.536865 235 24798ft 405kts
23-Apr-19 14:10 46.984076 -118.665251 235 27181ft 402kts
23-Apr-19 14:11 46.913565 -118.790400 235 29329ft 397kts
23-Apr-19 14:12 46.843782 -118.913552 235 31218ft 390kts
23-Apr-19 14:13 46.775369 -119.033819 235 32869ft 383kts
23-Apr-19 14:14 46.707924 -119.152269 235 34288ft 376kts
23-Apr-19 14:15 46.640846 -119.269626 236 35363ft 375kts
23-Apr-19 14:16 46.573711 -119.386522 235 36067ft 381kts
23-Apr-19 14:17 46.503607 -119.507611 235 36103ft 398kts
23-Apr-19 14:18 46.431761 -119.631373 235 36106ft 402kts
23-Apr-19 14:19 46.359672 -119.754990 235 36109ft 399kts
23-Apr-19 14:20 46.288593 -119.876639 235 36113ft 393kts
23-Apr-19 14:21 46.218138 -119.996278 235 36122ft 389kts
23-Apr-19 14:22 46.148047 -120.114919 235 36126ft 386kts
23-Apr-19 14:23 46.078337 -120.232433 235 36131ft 385kts
23-Apr-19 14:24 46.008389 -120.350079 235 36137ft 389kts
23-Apr-19 14:25 45.937628 -120.468878 235 36144ft 390kts
23-Apr-19 14:26 45.866960 -120.586396 235 36163ft 390kts
23-Apr-19 14:26 45.810716 -120.687679 248 36177ft 380kts
23-Apr-19 14:28 45.770532 -120.853002 251 36185ft 379kts
23-Apr-19 14:29 45.730088 -120.995401 252 36190ft 391kts
23-Apr-19 14:29 45.697055 -121.116588 252 36180ft 372kts
23-Apr-19 14:30 45.663474 -121.235382 251 34089ft 286kts
23-Apr-19 14:32 45.632830 -121.345361 251 30915ft 255kts
23-Apr-19 14:32 45.610701 -121.425064 252 27761ft 261kts
23-Apr-19 14:33 45.582977 -121.524347 251 23352ft 274kts
23-Apr-19 14:34 45.554286 -121.625717 251 18865ft 275kts
23-Apr-19 14:35 45.530721 -121.727663 266 14373ft 265kts
23-Apr-19 14:36 45.533459 -121.827178 273 12979ft 260kts
23-Apr-19 14:37 45.537142 -121.928983 272 12971ft 240kts
23-Apr-19 14:38 45.552316 -122.028714 287 12990ft 280kts
23-Apr-19 14:39 45.575462 -122.134310 284 12349ft 258kts
23-Apr-19 14:40 45.594620 -122.226996 284 10528ft 241kts
23-Apr-19 14:41 45.613602 -122.319485 284 9027ft 237kts
23-Apr-19 14:42 45.632793 -122.412871 284 8868ft 254kts
23-Apr-19 14:43 45.657413 -122.503845 293 7507ft 244kts
23-Apr-19 14:44 45.688889 -122.590860 295 5406ft 248kts
23-Apr-19 14:45 45.717576 -122.669933 295 4978ft 199kts
23-Apr-19 14:46 45.744413 -122.744194 295 4001ft 220kts
23-Apr-19 14:47 45.772352 -122.823492 295 3112ft 215kts
23-Apr-19 14:48 45.755555 -122.884354 207 3017ft 198kts
23-Apr-19 14:49 45.707826 -122.892802 147 3020ft 178kts
23-Apr-19 14:50 45.678663 -122.839653 119 3004ft 163kts
23-Apr-19 14:51 45.658429 -122.784308 118 2743ft 157kts
23-Apr-19 14:52 45.637372 -122.730013 119 1739ft 150kts
23-Apr-19 14:53 45.618303 -122.682035 119 986ft 133kts
23-Apr-19 14:54 45.600078 -122.634099 119 309ft 140kts
23-Apr-19 14:55 45.587042 -122.600578 118 37ft 28kts
23-Apr-19 14:56 45.588413 -122.598610 301 37ft 16kts
23-Apr-19 14:57 45.591117 -122.598566 95 37ft 19kts
23-Apr-19 14:58 45.591301 -122.596916 59 37ft 0kts
23-Apr-19 14:59 45.591301 -122.596914 59 37ft 0kts
23-Apr-19 15:00 45.591301 -122.596914 59 37ft 0kts
23-Apr-19 15:01 45.591301 -122.596914 59 37ft 0kts
23-Apr-19 15:02 45.591301 -122.596914 59 37ft 0kts
23-Apr-19 15:03 45.591301 -122.596914 59 37ft 0kts
23-Apr-19 15:04 45.591301 -122.596914 59 37ft 0kts
23-Apr-19 15:05 45.591301 -122.596914 59 37ft 0kts
23-Apr-19 15:06 45.591301 -122.596914 59 37ft 0kts

Navigation Log

Ident Type
Flight plan parsing failed, navigation log unavailable